sensor_id;sensor_type;location;lat;lon;timestamp;pressure;altitude;pressure_sealevel;temperature;humidity
54870;BME280;40756;-37.950;145.008;2022-10-22T00:01:22;100703.70;;;17.89;63.70
54870;BME280;40756;-37.950;145.008;2022-10-22T00:03:51;100702.77;;;18.18;63.22
54870;BME280;40756;-37.950;145.008;2022-10-22T00:06:21;100705.53;;;17.95;63.30
54870;BME280;40756;-37.950;145.008;2022-10-22T00:08:51;100707.60;;;17.79;63.78
54870;BME280;40756;-37.950;145.008;2022-10-22T00:11:21;100703.64;;;17.41;64.24
54870;BME280;40756;-37.950;145.008;2022-10-22T00:13:51;100702.64;;;17.77;64.23
54870;BME280;40756;-37.950;145.008;2022-10-22T00:16:21;100701.71;;;17.11;64.80
54870;BME280;40756;-37.950;145.008;2022-10-22T00:18:51;100707.22;;;18.00;65.13
54870;BME280;40756;-37.950;145.008;2022-10-22T00:21:21;100706.48;;;18.18;64.13
54870;BME280;40756;-37.950;145.008;2022-10-22T00:23:51;100711.58;;;18.70;63.43
54870;BME280;40756;-37.950;145.008;2022-10-22T00:26:21;100716.36;;;17.93;62.82
54870;BME280;40756;-37.950;145.008;2022-10-22T00:28:50;100720.66;;;18.25;63.31
54870;BME280;40756;-37.950;145.008;2022-10-22T00:31:20;100727.59;;;18.53;62.98
54870;BME280;40756;-37.950;145.008;2022-10-22T00:33:49;100728.16;;;18.15;62.54
54870;BME280;40756;-37.950;145.008;2022-10-22T00:36:19;100732.98;;;17.70;63.06
54870;BME280;40756;-37.950;145.008;2022-10-22T00:38:49;100736.69;;;17.12;63.82
54870;BME280;40756;-37.950;145.008;2022-10-22T00:41:19;100737.77;;;17.43;63.87
54870;BME280;40756;-37.950;145.008;2022-10-22T00:43:58;100741.19;;;17.91;63.99
54870;BME280;40756;-37.950;145.008;2022-10-22T00:46:29;100738.70;;;18.02;63.07
54870;BME280;40756;-37.950;145.008;2022-10-22T00:49:01;100743.73;;;17.23;64.21
54870;BME280;40756;-37.950;145.008;2022-10-22T00:51:32;100742.57;;;17.82;63.96
54870;BME280;40756;-37.950;145.008;2022-10-22T00:54:05;100749.55;;;17.85;64.25
54870;BME280;40756;-37.950;145.008;2022-10-22T00:56:37;100747.84;;;18.24;63.19
54870;BME280;40756;-37.950;145.008;2022-10-22T00:59:06;100743.99;;;18.07;62.96
54870;BME280;40756;-37.950;145.008;2022-10-22T01:01:36;100746.81;;;18.13;63.20
54870;BME280;40756;-37.950;145.008;2022-10-22T01:04:06;100740.09;;;18.32;62.51
54870;BME280;40756;-37.950;145.008;2022-10-22T01:06:35;100737.87;;;17.79;63.31
54870;BME280;40756;-37.950;145.008;2022-10-22T01:09:13;100733.77;;;18.30;61.73
54870;BME280;40756;-37.950;145.008;2022-10-22T01:11:54;100736.94;;;17.17;63.30
54870;BME280;40756;-37.950;145.008;2022-10-22T01:14:33;100733.09;;;18.37;62.23
54870;BME280;40756;-37.950;145.008;2022-10-22T01:17:07;100730.22;;;17.34;63.07
54870;BME280;40756;-37.950;145.008;2022-10-22T01:19:48;100723.71;;;18.76;60.00
54870;BME280;40756;-37.950;145.008;2022-10-22T01:22:26;100722.45;;;18.07;61.67
54870;BME280;40756;-37.950;145.008;2022-10-22T01:25:02;100718.20;;;18.66;60.83
54870;BME280;40756;-37.950;145.008;2022-10-22T01:27:43;100716.23;;;18.48;61.24
54870;BME280;40756;-37.950;145.008;2022-10-22T01:30:16;100712.48;;;18.77;60.24
54870;BME280;40756;-37.950;145.008;2022-10-22T01:32:50;100709.37;;;19.01;59.62
54870;BME280;40756;-37.950;145.008;2022-10-22T01:35:24;100710.12;;;18.86;58.90
54870;BME280;40756;-37.950;145.008;2022-10-22T01:37:57;100712.60;;;18.92;58.73
54870;BME280;40756;-37.950;145.008;2022-10-22T01:40:28;100711.13;;;19.23;58.59
54870;BME280;40756;-37.950;145.008;2022-10-22T01:43:01;100710.96;;;18.71;59.00
54870;BME280;40756;-37.950;145.008;2022-10-22T01:45:34;100709.12;;;18.96;59.37
54870;BME280;40756;-37.950;145.008;2022-10-22T01:48:15;100701.62;;;19.49;58.38
54870;BME280;40756;-37.950;145.008;2022-10-22T01:50:59;100715.37;;;18.66;58.92
54870;BME280;40756;-37.950;145.008;2022-10-22T01:53:40;100710.46;;;19.19;57.83
54870;BME280;40756;-37.950;145.008;2022-10-22T01:56:25;100706.32;;;19.42;58.12
54870;BME280;40756;-37.950;145.008;2022-10-22T01:59:05;100701.21;;;19.24;57.42
54870;BME280;40756;-37.950;145.008;2022-10-22T02:01:41;100699.07;;;19.07;58.16
54870;BME280;40756;-37.950;145.008;2022-10-22T02:04:19;100693.04;;;19.40;57.96
54870;BME280;40756;-37.950;145.008;2022-10-22T02:06:53;100687.58;;;19.70;58.23
54870;BME280;40756;-37.950;145.008;2022-10-22T02:09:26;100686.30;;;19.02;57.46
54870;BME280;40756;-37.950;145.008;2022-10-22T02:11:58;100686.44;;;19.09;57.18
54870;BME280;40756;-37.950;145.008;2022-10-22T02:14:30;100692.94;;;18.86;57.42
54870;BME280;40756;-37.950;145.008;2022-10-22T02:17:01;100706.62;;;18.67;58.26
54870;BME280;40756;-37.950;145.008;2022-10-22T02:19:37;100714.49;;;18.33;59.36
54870;BME280;40756;-37.950;145.008;2022-10-22T02:22:09;100713.49;;;19.67;58.98
54870;BME280;40756;-37.950;145.008;2022-10-22T02:24:39;100713.81;;;19.22;57.56
54870;BME280;40756;-37.950;145.008;2022-10-22T02:27:15;100716.47;;;18.52;59.36
54870;BME280;40756;-37.950;145.008;2022-10-22T02:29:52;100720.38;;;18.43;58.99
54870;BME280;40756;-37.950;145.008;2022-10-22T02:35:15;100721.14;;;20.09;58.46
54870;BME280;40756;-37.950;145.008;2022-10-22T02:37:47;100726.10;;;20.11;57.41
54870;BME280;40756;-37.950;145.008;2022-10-22T02:40:18;100724.02;;;20.51;55.77
54870;BME280;40756;-37.950;145.008;2022-10-22T02:42:48;100728.92;;;20.50;55.49
54870;BME280;40756;-37.950;145.008;2022-10-22T02:45:19;100726.39;;;19.50;55.59
54870;BME280;40756;-37.950;145.008;2022-10-22T02:47:48;100729.38;;;19.39;56.88
54870;BME280;40756;-37.950;145.008;2022-10-22T02:50:18;100725.95;;;19.75;56.24
54870;BME280;40756;-37.950;145.008;2022-10-22T02:52:47;100722.71;;;19.80;55.78
54870;BME280;40756;-37.950;145.008;2022-10-22T02:55:17;100726.64;;;20.80;55.94
54870;BME280;40756;-37.950;145.008;2022-10-22T02:57:46;100726.77;;;21.11;53.73
54870;BME280;40756;-37.950;145.008;2022-10-22T03:00:16;100725.25;;;20.98;53.39
54870;BME280;40756;-37.950;145.008;2022-10-22T03:02:46;100727.85;;;20.85;53.51
54870;BME280;40756;-37.950;145.008;2022-10-22T03:05:15;100731.52;;;20.42;53.34
54870;BME280;40756;-37.950;145.008;2022-10-22T03:07:45;100731.35;;;21.43;52.50
54870;BME280;40756;-37.950;145.008;2022-10-22T03:10:14;100730.03;;;21.55;51.85
54870;BME280;40756;-37.950;145.008;2022-10-22T03:12:44;100725.14;;;20.68;52.02
54870;BME280;40756;-37.950;145.008;2022-10-22T03:15:13;100722.57;;;21.11;52.10
54870;BME280;40756;-37.950;145.008;2022-10-22T03:17:43;100717.26;;;21.50;50.53
54870;BME280;40756;-37.950;145.008;2022-10-22T03:20:12;100711.09;;;22.07;49.78
54870;BME280;40756;-37.950;145.008;2022-10-22T03:22:42;100706.12;;;21.88;50.38
54870;BME280;40756;-37.950;145.008;2022-10-22T03:25:16;100708.48;;;22.53;49.51
54870;BME280;40756;-37.950;145.008;2022-10-22T03:27:47;100707.82;;;22.61;47.99
54870;BME280;40756;-37.950;145.008;2022-10-22T03:30:17;100709.28;;;23.24;47.08
54870;BME280;40756;-37.950;145.008;2022-10-22T03:32:47;100712.46;;;22.63;46.21
54870;BME280;40756;-37.950;145.008;2022-10-22T03:35:16;100713.72;;;22.89;47.96
54870;BME280;40756;-37.950;145.008;2022-10-22T03:37:46;100710.04;;;22.30;48.45
54870;BME280;40756;-37.950;145.008;2022-10-22T03:40:15;100711.65;;;21.14;49.94
54870;BME280;40756;-37.950;145.008;2022-10-22T03:42:44;100709.77;;;22.32;49.58
54870;BME280;40756;-37.950;145.008;2022-10-22T03:45:14;100713.24;;;22.11;49.01
54870;BME280;40756;-37.950;145.008;2022-10-22T03:47:43;100714.02;;;21.93;49.58
54870;BME280;40756;-37.950;145.008;2022-10-22T03:50:12;100717.55;;;22.44;49.37
54870;BME280;40756;-37.950;145.008;2022-10-22T03:52:41;100724.20;;;22.34;49.82
54870;BME280;40756;-37.950;145.008;2022-10-22T03:55:11;100724.85;;;21.40;50.65
54870;BME280;40756;-37.950;145.008;2022-10-22T03:57:40;100724.83;;;21.51;50.64
54870;BME280;40756;-37.950;145.008;2022-10-22T04:00:11;100727.34;;;21.03;51.82
54870;BME280;40756;-37.950;145.008;2022-10-22T04:02:40;100729.29;;;20.59;52.79
54870;BME280;40756;-37.950;145.008;2022-10-22T04:05:10;100730.58;;;20.23;54.15
54870;BME280;40756;-37.950;145.008;2022-10-22T04:07:39;100731.89;;;20.75;53.35
54870;BME280;40756;-37.950;145.008;2022-10-22T04:10:09;100734.64;;;20.97;52.72
54870;BME280;40756;-37.950;145.008;2022-10-22T04:12:39;100742.75;;;19.03;56.46
54870;BME280;40756;-37.950;145.008;2022-10-22T04:15:09;100742.96;;;20.09;56.35
54870;BME280;40756;-37.950;145.008;2022-10-22T04:17:39;100747.85;;;19.82;56.16
54870;BME280;40756;-37.950;145.008;2022-10-22T04:20:10;100744.29;;;19.83;55.96
54870;BME280;40756;-37.950;145.008;2022-10-22T04:22:39;100747.41;;;19.64;56.37
54870;BME280;40756;-37.950;145.008;2022-10-22T04:25:09;100750.41;;;18.73;58.22
54870;BME280;40756;-37.950;145.008;2022-10-22T04:27:39;100746.34;;;19.41;56.46
54870;BME280;40756;-37.950;145.008;2022-10-22T04:30:09;100747.60;;;18.68;58.48
54870;BME280;40756;-37.950;145.008;2022-10-22T04:32:39;100750.74;;;19.01;57.59
54870;BME280;40756;-37.950;145.008;2022-10-22T04:35:09;100745.72;;;19.69;56.26
54870;BME280;40756;-37.950;145.008;2022-10-22T04:37:38;100748.76;;;19.34;56.75
54870;BME280;40756;-37.950;145.008;2022-10-22T04:40:09;100747.40;;;19.12;56.87
54870;BME280;40756;-37.950;145.008;2022-10-22T04:42:39;100738.74;;;19.60;57.08
54870;BME280;40756;-37.950;145.008;2022-10-22T04:45:09;100733.31;;;19.57;55.83
54870;BME280;40756;-37.950;145.008;2022-10-22T04:47:39;100728.21;;;20.02;54.81
54870;BME280;40756;-37.950;145.008;2022-10-22T04:50:09;100728.66;;;20.54;54.58
54870;BME280;40756;-37.950;145.008;2022-10-22T04:52:38;100723.89;;;20.77;54.30
54870;BME280;40756;-37.950;145.008;2022-10-22T04:55:08;100726.73;;;20.60;53.41
54870;BME280;40756;-37.950;145.008;2022-10-22T04:57:37;100726.24;;;21.26;53.21
54870;BME280;40756;-37.950;145.008;2022-10-22T05:00:08;100740.48;;;20.92;53.01
54870;BME280;40756;-37.950;145.008;2022-10-22T05:02:38;100738.26;;;20.76;52.37
54870;BME280;40756;-37.950;145.008;2022-10-22T05:05:08;100735.28;;;20.82;52.34
54870;BME280;40756;-37.950;145.008;2022-10-22T05:07:37;100742.06;;;19.13;53.75
54870;BME280;40756;-37.950;145.008;2022-10-22T05:10:07;100737.68;;;19.87;53.55
54870;BME280;40756;-37.950;145.008;2022-10-22T05:12:37;100735.38;;;19.74;54.09
54870;BME280;40756;-37.950;145.008;2022-10-22T05:15:08;100736.21;;;19.90;53.55
54870;BME280;40756;-37.950;145.008;2022-10-22T05:17:37;100733.23;;;19.83;54.31
54870;BME280;40756;-37.950;145.008;2022-10-22T05:20:08;100732.19;;;19.22;55.17
54870;BME280;40756;-37.950;145.008;2022-10-22T05:22:37;100723.19;;;19.90;55.06
54870;BME280;40756;-37.950;145.008;2022-10-22T05:25:07;100715.47;;;20.52;54.33
54870;BME280;40756;-37.950;145.008;2022-10-22T05:27:38;100708.88;;;20.27;53.26
54870;BME280;40756;-37.950;145.008;2022-10-22T05:30:08;100710.24;;;19.92;53.68
54870;BME280;40756;-37.950;145.008;2022-10-22T05:32:38;100710.77;;;20.18;53.23
54870;BME280;40756;-37.950;145.008;2022-10-22T05:35:08;100711.94;;;20.97;52.64
54870;BME280;40756;-37.950;145.008;2022-10-22T05:37:38;100706.72;;;21.24;51.02
54870;BME280;40756;-37.950;145.008;2022-10-22T05:40:08;100705.38;;;21.21;50.36
54870;BME280;40756;-37.950;145.008;2022-10-22T05:42:37;100704.37;;;21.51;49.66
54870;BME280;40756;-37.950;145.008;2022-10-22T05:45:07;100711.16;;;21.81;49.33
54870;BME280;40756;-37.950;145.008;2022-10-22T05:47:37;100715.26;;;21.89;49.49
54870;BME280;40756;-37.950;145.008;2022-10-22T05:50:07;100720.52;;;21.91;49.82
54870;BME280;40756;-37.950;145.008;2022-10-22T05:52:37;100723.83;;;22.60;47.88
54870;BME280;40756;-37.950;145.008;2022-10-22T05:55:07;100729.27;;;22.02;48.22
54870;BME280;40756;-37.950;145.008;2022-10-22T05:57:37;100736.61;;;21.82;49.17
54870;BME280;40756;-37.950;145.008;2022-10-22T06:00:08;100741.61;;;21.10;50.01
54870;BME280;40756;-37.950;145.008;2022-10-22T06:02:38;100746.49;;;20.54;52.31
54870;BME280;40756;-37.950;145.008;2022-10-22T06:05:08;100749.35;;;21.29;51.32
54870;BME280;40756;-37.950;145.008;2022-10-22T06:07:37;100755.32;;;21.06;51.08
54870;BME280;40756;-37.950;145.008;2022-10-22T06:10:12;100759.72;;;21.15;50.67
54870;BME280;40756;-37.950;145.008;2022-10-22T06:12:42;100762.89;;;20.76;50.42
54870;BME280;40756;-37.950;145.008;2022-10-22T06:15:14;100768.56;;;20.08;51.75
54870;BME280;40756;-37.950;145.008;2022-10-22T06:17:45;100773.16;;;19.42;53.46
54870;BME280;40756;-37.950;145.008;2022-10-22T06:20:15;100767.76;;;19.85;53.18
54870;BME280;40756;-37.950;145.008;2022-10-22T06:22:45;100769.46;;;20.20;53.11
54870;BME280;40756;-37.950;145.008;2022-10-22T06:25:15;100775.44;;;20.71;53.00
54870;BME280;40756;-37.950;145.008;2022-10-22T06:27:49;100781.16;;;20.31;53.12
54870;BME280;40756;-37.950;145.008;2022-10-22T06:30:18;100781.41;;;20.56;52.35
54870;BME280;40756;-37.950;145.008;2022-10-22T06:32:47;100782.39;;;20.20;53.59
54870;BME280;40756;-37.950;145.008;2022-10-22T06:35:17;100793.00;;;20.60;52.78
54870;BME280;40756;-37.950;145.008;2022-10-22T06:37:46;100798.41;;;20.66;52.58
54870;BME280;40756;-37.950;145.008;2022-10-22T06:40:16;100800.74;;;20.52;52.49
54870;BME280;40756;-37.950;145.008;2022-10-22T06:42:45;100814.73;;;19.96;53.12
54870;BME280;40756;-37.950;145.008;2022-10-22T06:45:15;100817.94;;;19.77;53.72
54870;BME280;40756;-37.950;145.008;2022-10-22T06:47:44;100829.72;;;19.27;54.49
54870;BME280;40756;-37.950;145.008;2022-10-22T06:50:14;100828.12;;;19.46;54.82
54870;BME280;40756;-37.950;145.008;2022-10-22T06:52:44;100825.55;;;19.49;54.58
54870;BME280;40756;-37.950;145.008;2022-10-22T06:55:13;100820.72;;;19.90;54.43
54870;BME280;40756;-37.950;145.008;2022-10-22T06:57:42;100825.58;;;18.68;56.15
54870;BME280;40756;-37.950;145.008;2022-10-22T07:00:13;100829.49;;;19.68;55.13
54870;BME280;40756;-37.950;145.008;2022-10-22T07:02:42;100834.18;;;18.79;56.05
54870;BME280;40756;-37.950;145.008;2022-10-22T07:05:12;100835.67;;;18.96;56.00
54870;BME280;40756;-37.950;145.008;2022-10-22T07:07:41;100830.61;;;18.71;57.42
54870;BME280;40756;-37.950;145.008;2022-10-22T07:10:11;100830.21;;;18.81;56.50
54870;BME280;40756;-37.950;145.008;2022-10-22T07:12:41;100829.78;;;19.32;56.60
54870;BME280;40756;-37.950;145.008;2022-10-22T07:15:10;100832.23;;;19.03;56.20
54870;BME280;40756;-37.950;145.008;2022-10-22T07:17:40;100836.93;;;19.05;55.93
54870;BME280;40756;-37.950;145.008;2022-10-22T07:20:10;100838.54;;;19.20;55.18
54870;BME280;40756;-37.950;145.008;2022-10-22T07:22:39;100836.91;;;19.04;55.53
54870;BME280;40756;-37.950;145.008;2022-10-22T07:25:09;100837.89;;;19.02;55.60
54870;BME280;40756;-37.950;145.008;2022-10-22T07:27:38;100839.02;;;18.43;56.37
54870;BME280;40756;-37.950;145.008;2022-10-22T07:30:09;100838.92;;;19.21;55.53
54870;BME280;40756;-37.950;145.008;2022-10-22T07:32:39;100835.85;;;18.64;56.72
54870;BME280;40756;-37.950;145.008;2022-10-22T07:35:09;100841.29;;;19.02;56.00
54870;BME280;40756;-37.950;145.008;2022-10-22T07:37:39;100844.70;;;18.37;56.13
54870;BME280;40756;-37.950;145.008;2022-10-22T07:40:10;100849.40;;;18.55;56.59
54870;BME280;40756;-37.950;145.008;2022-10-22T07:42:40;100855.36;;;17.78;57.66
54870;BME280;40756;-37.950;145.008;2022-10-22T07:45:10;100861.85;;;18.39;57.06
54870;BME280;40756;-37.950;145.008;2022-10-22T07:47:39;100869.69;;;18.00;57.73
54870;BME280;40756;-37.950;145.008;2022-10-22T07:50:09;100875.87;;;18.43;57.26
54870;BME280;40756;-37.950;145.008;2022-10-22T07:52:38;100887.74;;;17.44;58.96
54870;BME280;40756;-37.950;145.008;2022-10-22T07:55:08;100899.81;;;18.01;58.14
54870;BME280;40756;-37.950;145.008;2022-10-22T07:57:38;100903.18;;;18.18;58.07
54870;BME280;40756;-37.950;145.008;2022-10-22T08:00:09;100911.00;;;17.46;59.28
54870;BME280;40756;-37.950;145.008;2022-10-22T08:02:39;100916.61;;;17.04;59.85
54870;BME280;40756;-37.950;145.008;2022-10-22T08:05:09;100922.03;;;17.71;59.02
54870;BME280;40756;-37.950;145.008;2022-10-22T08:07:38;100921.15;;;17.10;59.14
54870;BME280;40756;-37.950;145.008;2022-10-22T08:10:09;100925.78;;;16.97;60.57
54870;BME280;40756;-37.950;145.008;2022-10-22T08:12:38;100936.17;;;17.18;60.12
54870;BME280;40756;-37.950;145.008;2022-10-22T08:15:09;100940.33;;;17.06;59.92
54870;BME280;40756;-37.950;145.008;2022-10-22T08:17:39;100947.06;;;17.49;59.98
54870;BME280;40756;-37.950;145.008;2022-10-22T08:20:09;100952.79;;;17.11;60.21
54870;BME280;40756;-37.950;145.008;2022-10-22T08:22:39;100953.49;;;16.74;60.55
54870;BME280;40756;-37.950;145.008;2022-10-22T08:25:09;100965.62;;;17.60;59.92
54870;BME280;40756;-37.950;145.008;2022-10-22T08:27:39;100969.29;;;17.23;59.73
54870;BME280;40756;-37.950;145.008;2022-10-22T08:30:11;100973.49;;;17.15;59.48
54870;BME280;40756;-37.950;145.008;2022-10-22T08:32:41;100974.86;;;17.40;59.77
54870;BME280;40756;-37.950;145.008;2022-10-22T08:35:11;100979.12;;;17.03;59.74
54870;BME280;40756;-37.950;145.008;2022-10-22T08:37:41;100988.51;;;16.91;60.39
54870;BME280;40756;-37.950;145.008;2022-10-22T08:40:20;100993.97;;;17.10;59.74
54870;BME280;40756;-37.950;145.008;2022-10-22T08:43:24;100999.90;;;17.78;59.20
54870;BME280;40756;-37.950;145.008;2022-10-22T08:46:08;101004.37;;;16.87;59.36
54870;BME280;40756;-37.950;145.008;2022-10-22T08:48:46;101009.50;;;16.98;59.74
54870;BME280;40756;-37.950;145.008;2022-10-22T08:51:19;101015.00;;;17.11;59.29
54870;BME280;40756;-37.950;145.008;2022-10-22T08:54:05;101016.59;;;16.90;59.50
54870;BME280;40756;-37.950;145.008;2022-10-22T08:56:42;101025.63;;;16.91;60.82
54870;BME280;40756;-37.950;145.008;2022-10-22T08:59:16;101035.80;;;16.67;60.78
54870;BME280;40756;-37.950;145.008;2022-10-22T09:01:50;101037.15;;;16.51;61.02
54870;BME280;40756;-37.950;145.008;2022-10-22T09:04:23;101046.77;;;16.82;60.87
54870;BME280;40756;-37.950;145.008;2022-10-22T09:06:56;101046.54;;;17.24;59.99
54870;BME280;40756;-37.950;145.008;2022-10-22T09:09:29;101050.52;;;16.72;59.24
54870;BME280;40756;-37.950;145.008;2022-10-22T09:12:01;101059.63;;;16.78;59.56
54870;BME280;40756;-37.950;145.008;2022-10-22T09:14:30;101063.09;;;17.01;58.57
54870;BME280;40756;-37.950;145.008;2022-10-22T09:17:13;101074.88;;;16.72;59.27
54870;BME280;40756;-37.950;145.008;2022-10-22T09:19:53;101078.79;;;17.10;59.04
54870;BME280;40756;-37.950;145.008;2022-10-22T09:22:35;101085.82;;;16.94;59.08
54870;BME280;40756;-37.950;145.008;2022-10-22T09:25:18;101084.10;;;17.04;58.71
54870;BME280;40756;-37.950;145.008;2022-10-22T09:27:48;101087.82;;;17.37;58.18
54870;BME280;40756;-37.950;145.008;2022-10-22T09:30:21;101087.07;;;17.15;58.52
54870;BME280;40756;-37.950;145.008;2022-10-22T09:32:52;101090.71;;;17.66;57.95
54870;BME280;40756;-37.950;145.008;2022-10-22T09:35:23;101092.84;;;17.45;57.24
54870;BME280;40756;-37.950;145.008;2022-10-22T09:37:55;101091.55;;;17.08;57.13
54870;BME280;40756;-37.950;145.008;2022-10-22T09:40:25;101091.17;;;16.89;57.26
54870;BME280;40756;-37.950;145.008;2022-10-22T09:42:55;101094.36;;;17.38;56.53
54870;BME280;40756;-37.950;145.008;2022-10-22T09:45:26;101099.46;;;17.25;56.40
54870;BME280;40756;-37.950;145.008;2022-10-22T09:48:10;101101.54;;;17.39;56.41
54870;BME280;40756;-37.950;145.008;2022-10-22T09:50:44;101102.83;;;16.88;56.21
54870;BME280;40756;-37.950;145.008;2022-10-22T09:53:20;101103.70;;;17.27;55.98
54870;BME280;40756;-37.950;145.008;2022-10-22T09:55:53;101109.43;;;17.05;56.74
54870;BME280;40756;-37.950;145.008;2022-10-22T09:58:23;101107.55;;;16.80;57.20
54870;BME280;40756;-37.950;145.008;2022-10-22T10:00:55;101107.48;;;16.91;57.77
54870;BME280;40756;-37.950;145.008;2022-10-22T10:03:27;101112.31;;;16.85;58.59
54870;BME280;40756;-37.950;145.008;2022-10-22T10:05:59;101117.36;;;16.71;59.01
54870;BME280;40756;-37.950;145.008;2022-10-22T10:08:29;101119.45;;;16.43;60.72
54870;BME280;40756;-37.950;145.008;2022-10-22T10:11:04;101126.04;;;16.80;60.46
54870;BME280;40756;-37.950;145.008;2022-10-22T10:13:46;101131.42;;;16.02;61.59
54870;BME280;40756;-37.950;145.008;2022-10-22T10:16:28;101134.60;;;16.34;61.21
54870;BME280;40756;-37.950;145.008;2022-10-22T10:19:18;101136.78;;;16.12;61.36
54870;BME280;40756;-37.950;145.008;2022-10-22T10:21:59;101134.64;;;16.52;60.65
54870;BME280;40756;-37.950;145.008;2022-10-22T10:24:53;101139.82;;;15.66;61.45
54870;BME280;40756;-37.950;145.008;2022-10-22T10:27:32;101144.51;;;15.59;62.03
54870;BME280;40756;-37.950;145.008;2022-10-22T10:30:08;101150.89;;;16.40;60.77
54870;BME280;40756;-37.950;145.008;2022-10-22T10:32:59;101155.70;;;16.36;60.33
54870;BME280;40756;-37.950;145.008;2022-10-22T10:35:38;101161.93;;;16.40;59.27
54870;BME280;40756;-37.950;145.008;2022-10-22T10:38:23;101168.19;;;15.88;59.45
54870;BME280;40756;-37.950;145.008;2022-10-22T10:41:01;101168.39;;;16.17;59.34
54870;BME280;40756;-37.950;145.008;2022-10-22T10:43:40;101168.05;;;16.48;58.40
54870;BME280;40756;-37.950;145.008;2022-10-22T10:46:18;101173.34;;;16.28;58.90
54870;BME280;40756;-37.950;145.008;2022-10-22T10:48:56;101172.02;;;16.16;58.53
54870;BME280;40756;-37.950;145.008;2022-10-22T10:51:35;101171.61;;;16.70;57.95
54870;BME280;40756;-37.950;145.008;2022-10-22T10:54:24;101175.92;;;16.13;58.00
54870;BME280;40756;-37.950;145.008;2022-10-22T10:56:57;101172.19;;;16.49;57.71
54870;BME280;40756;-37.950;145.008;2022-10-22T10:59:41;101175.81;;;16.45;57.18
54870;BME280;40756;-37.950;145.008;2022-10-22T11:03:41;101182.74;;;16.43;56.83
54870;BME280;40756;-37.950;145.008;2022-10-22T11:06:18;101189.35;;;16.56;56.54
54870;BME280;40756;-37.950;145.008;2022-10-22T11:08:53;101185.27;;;16.07;56.80
54870;BME280;40756;-37.950;145.008;2022-10-22T11:11:30;101184.06;;;16.52;56.86
54870;BME280;40756;-37.950;145.008;2022-10-22T11:14:08;101181.56;;;16.02;57.46
54870;BME280;40756;-37.950;145.008;2022-10-22T11:16:43;101183.35;;;16.24;57.45
54870;BME280;40756;-37.950;145.008;2022-10-22T11:19:19;101184.83;;;16.25;57.70
54870;BME280;40756;-37.950;145.008;2022-10-22T11:21:56;101191.30;;;16.72;57.13
54870;BME280;40756;-37.950;145.008;2022-10-22T11:24:31;101193.23;;;16.39;57.19
54870;BME280;40756;-37.950;145.008;2022-10-22T11:27:14;101195.33;;;16.19;57.44
54870;BME280;40756;-37.950;145.008;2022-10-22T11:29:53;101199.46;;;16.42;57.75
54870;BME280;40756;-37.950;145.008;2022-10-22T11:32:26;101201.83;;;16.24;57.66
54870;BME280;40756;-37.950;145.008;2022-10-22T11:35:00;101200.69;;;16.65;57.10
54870;BME280;40756;-37.950;145.008;2022-10-22T11:37:32;101201.96;;;16.67;56.46
54870;BME280;40756;-37.950;145.008;2022-10-22T11:40:07;101206.18;;;16.55;56.54
54870;BME280;40756;-37.950;145.008;2022-10-22T11:42:43;101213.36;;;16.77;56.03
54870;BME280;40756;-37.950;145.008;2022-10-22T11:45:36;101218.64;;;16.65;55.86
54870;BME280;40756;-37.950;145.008;2022-10-22T11:48:14;101224.63;;;16.31;56.07
54870;BME280;40756;-37.950;145.008;2022-10-22T11:50:48;101231.38;;;16.54;56.03
54870;BME280;40756;-37.950;145.008;2022-10-22T11:53:25;101237.82;;;17.10;55.44
54870;BME280;40756;-37.950;145.008;2022-10-22T11:55:57;101245.88;;;16.77;55.39
54870;BME280;40756;-37.950;145.008;2022-10-22T11:58:39;101250.56;;;16.53;55.34
54870;BME280;40756;-37.950;145.008;2022-10-22T12:01:28;101249.68;;;16.99;55.56
54870;BME280;40756;-37.950;145.008;2022-10-22T12:04:41;101251.61;;;16.36;55.45
54870;BME280;40756;-37.950;145.008;2022-10-22T12:07:32;101246.07;;;17.15;54.54
54870;BME280;40756;-37.950;145.008;2022-10-22T12:10:10;101244.11;;;17.21;54.02
54870;BME280;40756;-37.950;145.008;2022-10-22T12:12:54;101243.62;;;16.86;54.14
54870;BME280;40756;-37.950;145.008;2022-10-22T12:15:26;101241.44;;;16.71;53.45
54870;BME280;40756;-37.950;145.008;2022-10-22T12:18:00;101233.59;;;17.13;53.37
54870;BME280;40756;-37.950;145.008;2022-10-22T12:20:30;101229.27;;;17.04;52.91
54870;BME280;40756;-37.950;145.008;2022-10-22T12:23:00;101222.43;;;17.14;52.86
54870;BME280;40756;-37.950;145.008;2022-10-22T12:25:31;101221.77;;;16.93;52.93
54870;BME280;40756;-37.950;145.008;2022-10-22T12:28:01;101217.81;;;16.75;53.12
54870;BME280;40756;-37.950;145.008;2022-10-22T12:30:32;101225.12;;;16.65;53.21
54870;BME280;40756;-37.950;145.008;2022-10-22T12:33:03;101225.09;;;16.99;52.86
54870;BME280;40756;-37.950;145.008;2022-10-22T12:35:42;101225.03;;;17.18;52.66
54870;BME280;40756;-37.950;145.008;2022-10-22T12:38:14;101228.29;;;16.54;52.81
54870;BME280;40756;-37.950;145.008;2022-10-22T12:40:44;101229.50;;;16.89;52.75
54870;BME280;40756;-37.950;145.008;2022-10-22T12:43:17;101227.34;;;16.69;52.61
54870;BME280;40756;-37.950;145.008;2022-10-22T12:45:48;101225.96;;;16.76;52.60
54870;BME280;40756;-37.950;145.008;2022-10-22T12:48:20;101230.67;;;16.66;53.61
54870;BME280;40756;-37.950;145.008;2022-10-22T12:50:52;101227.33;;;16.77;53.14
54870;BME280;40756;-37.950;145.008;2022-10-22T12:53:26;101222.95;;;16.79;53.45